Startpagina
METAR-TAF:

METAR-TAF

Vliegvelden :

Luchthaven van Khartoem

Khartoem, Soedan

breedte: 15-36N, lengte: 032-33E, hoogte: 382 m

Actueel weer

Dit bericht is 39 minuten geleden gemaakt, om 14:00 UTC
Wind 11 kt uit het noordnoordwesten
Temperatuur 29°C
Vochtigheid 11%
Druk 1014 hPa
Zicht 10 km of meer
geen wolken onder 1500 m en geen cumulonimbus

METAR: HSSS 261400Z 33011KT CAVOK 29/M04 Q1014 NOSIG

Tijdstip: 16:39 (14:39 UTC)

Verwachting

Dit bericht is 3 uur en het 39 minuten geleden gemaakt, om 11:00 UTC
Verwachting geldig van 26 om 12 UTC tot 27 om 18 UTC
Wind 12 kt uit het noordnoordoosten met uitschieters tot 22 kt
Zicht 10 km of meer
geen wolken onder 1500 m en geen cumulonimbus

TAF: HSSS 261100Z 2612/2718 02012G22KT CAVOK

Waarnemingen en weersverwachtingen van meer dan 4000 vliegvelden (METAR en TAF).

De beschikbare stations zijn de gele en rode punten op de kaart.

Ga met uw muis naar het station om de naam te zien.

Klik dan om waarnemingen en weersverwachtingen te zien.

kaart wijzigen: klik op de groene knoppen met een zwart kruis om in te zoomen, op de groene knop met een streepje om uit te zoomen of op de groene pijlen voor aangrenzende kaarten.


METAR-TAF: